sensor_id;sensor_type;location;lat;lon;timestamp;pressure;altitude;pressure_sealevel;temperature;humidity
64908;BME280;69061;52.236;5.188;2023-04-22T00:00:36;100813.97;;;11.11;87.48
64908;BME280;69061;52.236;5.188;2023-04-22T00:03:03;100818.13;;;11.08;86.70
64908;BME280;69061;52.236;5.188;2023-04-22T00:05:31;100813.19;;;11.07;87.37
64908;BME280;69061;52.236;5.188;2023-04-22T00:07:57;100815.78;;;11.03;87.16
64908;BME280;69061;52.236;5.188;2023-04-22T00:10:24;100810.84;;;11.02;87.99
64908;BME280;69061;52.236;5.188;2023-04-22T00:12:50;100807.06;;;11.03;87.50
64908;BME280;69061;52.236;5.188;2023-04-22T00:15:17;100809.25;;;10.97;86.62
64908;BME280;69061;52.236;5.188;2023-04-22T00:17:46;100805.41;;;10.91;86.61
64908;BME280;69061;52.236;5.188;2023-04-22T00:20:12;100815.56;;;10.82;87.39
64908;BME280;69061;52.236;5.188;2023-04-22T00:22:40;100802.19;;;10.71;87.13
64908;BME280;69061;52.236;5.188;2023-04-22T00:25:07;100797.53;;;10.64;87.59
64908;BME280;69061;52.236;5.188;2023-04-22T00:27:34;100805.91;;;10.66;89.46
64908;BME280;69061;52.236;5.188;2023-04-22T00:30:00;100814.34;;;10.72;89.51
64908;BME280;69061;52.236;5.188;2023-04-22T00:32:27;100802.84;;;10.64;87.82
64908;BME280;69061;52.236;5.188;2023-04-22T00:34:53;100801.69;;;10.61;86.95
64908;BME280;69061;52.236;5.188;2023-04-22T00:37:21;100791.38;;;10.56;87.33
64908;BME280;69061;52.236;5.188;2023-04-22T00:39:49;100797.13;;;10.58;89.32
64908;BME280;69061;52.236;5.188;2023-04-22T00:42:16;100797.50;;;10.60;89.29
64908;BME280;69061;52.236;5.188;2023-04-22T00:44:45;100794.44;;;10.58;88.12
64908;BME280;69061;52.236;5.188;2023-04-22T00:47:12;100791.47;;;10.64;89.20
64908;BME280;69061;52.236;5.188;2023-04-22T00:49:38;100801.75;;;10.65;89.38
64908;BME280;69061;52.236;5.188;2023-04-22T00:52:05;100785.38;;;10.63;88.51
64908;BME280;69061;52.236;5.188;2023-04-22T00:54:33;100791.47;;;10.64;88.37
64908;BME280;69061;52.236;5.188;2023-04-22T00:57:02;100795.22;;;10.59;87.45
64908;BME280;69061;52.236;5.188;2023-04-22T00:59:30;100791.63;;;10.44;86.92
64908;BME280;69061;52.236;5.188;2023-04-22T01:01:56;100802.63;;;10.42;87.78
64908;BME280;69061;52.236;5.188;2023-04-22T01:04:23;100804.53;;;10.42;87.54
64908;BME280;69061;52.236;5.188;2023-04-22T01:06:51;100800.97;;;10.34;87.24
64908;BME280;69061;52.236;5.188;2023-04-22T01:09:17;100806.66;;;10.33;87.01
64908;BME280;69061;52.236;5.188;2023-04-22T01:11:45;100805.88;;;10.32;87.48
64908;BME280;69061;52.236;5.188;2023-04-22T01:14:13;100811.53;;;10.31;87.66
64908;BME280;69061;52.236;5.188;2023-04-22T01:16:40;100807.84;;;10.35;88.14
64908;BME280;69061;52.236;5.188;2023-04-22T01:19:07;100810.84;;;10.34;88.31
64908;BME280;69061;52.236;5.188;2023-04-22T01:21:36;100805.44;;;10.26;88.27
64908;BME280;69061;52.236;5.188;2023-04-22T01:24:06;100809.25;;;10.29;89.05
64908;BME280;69061;52.236;5.188;2023-04-22T01:26:33;100804.69;;;10.29;89.44
64908;BME280;69061;52.236;5.188;2023-04-22T01:29:00;100805.44;;;10.26;88.16
64908;BME280;69061;52.236;5.188;2023-04-22T01:31:27;100802.38;;;10.24;87.61
64908;BME280;69061;52.236;5.188;2023-04-22T01:33:54;100807.28;;;10.22;87.98
64908;BME280;69061;52.236;5.188;2023-04-22T01:36:21;100809.19;;;10.22;89.06
64908;BME280;69061;52.236;5.188;2023-04-22T01:38:47;100808.09;;;10.26;91.02
64908;BME280;69061;52.236;5.188;2023-04-22T01:41:15;100806.97;;;10.27;89.56
64908;BME280;69061;52.236;5.188;2023-04-22T01:43:43;100805.75;;;10.21;87.78
64908;BME280;69061;52.236;5.188;2023-04-22T01:46:09;100814.03;;;10.16;87.77
64908;BME280;69061;52.236;5.188;2023-04-22T01:48:37;100805.22;;;10.08;87.39
64908;BME280;69061;52.236;5.188;2023-04-22T01:51:03;100812.00;;;10.06;89.47
64908;BME280;69061;52.236;5.188;2023-04-22T01:53:30;100808.22;;;10.07;89.79
64908;BME280;69061;52.236;5.188;2023-04-22T01:55:56;100808.94;;;10.04;88.68
64908;BME280;69061;52.236;5.188;2023-04-22T01:58:27;100811.09;;;9.94;86.24
64908;BME280;69061;52.236;5.188;2023-04-22T02:00:54;100809.88;;;9.88;85.91
64908;BME280;69061;52.236;5.188;2023-04-22T02:03:20;100812.09;;;9.86;88.41
64908;BME280;69061;52.236;5.188;2023-04-22T02:05:47;100804.91;;;9.87;89.76
64908;BME280;69061;52.236;5.188;2023-04-22T02:08:13;100804.09;;;9.83;87.52
64908;BME280;69061;52.236;5.188;2023-04-22T02:10:40;100805.94;;;9.78;86.35
64908;BME280;69061;52.236;5.188;2023-04-22T02:13:06;100807.00;;;9.74;87.67
64908;BME280;69061;52.236;5.188;2023-04-22T02:15:34;100809.97;;;9.69;86.45
64908;BME280;69061;52.236;5.188;2023-04-22T02:18:01;100804.97;;;9.64;85.70
64908;BME280;69061;52.236;5.188;2023-04-22T02:20:27;100812.13;;;9.63;88.48
64908;BME280;69061;52.236;5.188;2023-04-22T02:22:54;100820.53;;;9.65;89.02
64908;BME280;69061;52.236;5.188;2023-04-22T02:25:20;100817.44;;;9.63;89.33
64908;BME280;69061;52.236;5.188;2023-04-22T02:27:47;100819.72;;;9.61;87.54
64908;BME280;69061;52.236;5.188;2023-04-22T02:30:14;100805.31;;;9.62;89.41
64908;BME280;69061;52.236;5.188;2023-04-22T02:32:42;100808.44;;;9.68;90.84
64908;BME280;69061;52.236;5.188;2023-04-22T02:35:09;100805.47;;;9.73;92.07
64908;BME280;69061;52.236;5.188;2023-04-22T02:37:36;100803.97;;;9.75;92.19
64908;BME280;69061;52.236;5.188;2023-04-22T02:40:03;100803.22;;;9.75;91.04
64908;BME280;69061;52.236;5.188;2023-04-22T02:42:31;100805.41;;;9.69;87.88
64908;BME280;69061;52.236;5.188;2023-04-22T02:44:58;100795.03;;;9.60;86.81
64908;BME280;69061;52.236;5.188;2023-04-22T02:47:24;100795.69;;;9.54;87.12
64908;BME280;69061;52.236;5.188;2023-04-22T02:49:52;100791.13;;;9.51;88.70
64908;BME280;69061;52.236;5.188;2023-04-22T02:52:19;100791.06;;;9.47;88.09
64908;BME280;69061;52.236;5.188;2023-04-22T02:54:45;100784.59;;;9.44;87.79
64908;BME280;69061;52.236;5.188;2023-04-22T02:57:11;100791.38;;;9.42;89.69
64908;BME280;69061;52.236;5.188;2023-04-22T02:59:38;100786.06;;;9.42;88.68
64908;BME280;69061;52.236;5.188;2023-04-22T03:02:04;100782.59;;;9.38;87.06
64908;BME280;69061;52.236;5.188;2023-04-22T03:04:31;100778.28;;;9.30;87.34
64908;BME280;69061;52.236;5.188;2023-04-22T03:06:59;100779.41;;;9.29;88.70
64908;BME280;69061;52.236;5.188;2023-04-22T03:09:25;100778.59;;;9.24;86.20
64908;BME280;69061;52.236;5.188;2023-04-22T03:11:52;100785.72;;;9.20;85.61
64908;BME280;69061;52.236;5.188;2023-04-22T03:14:18;100781.53;;;9.19;86.70
64908;BME280;69061;52.236;5.188;2023-04-22T03:16:45;100776.16;;;9.16;88.57
64908;BME280;69061;52.236;5.188;2023-04-22T03:19:12;100774.31;;;9.20;88.26
64908;BME280;69061;52.236;5.188;2023-04-22T03:21:41;100769.44;;;9.22;88.00
64908;BME280;69061;52.236;5.188;2023-04-22T03:24:09;100768.63;;;9.18;88.54
64908;BME280;69061;52.236;5.188;2023-04-22T03:26:35;100762.16;;;9.15;86.76
64908;BME280;69061;52.236;5.188;2023-04-22T03:29:02;100763.63;;;9.13;88.23
64908;BME280;69061;52.236;5.188;2023-04-22T03:31:28;100750.25;;;9.05;86.51
64908;BME280;69061;52.236;5.188;2023-04-22T03:33:55;100760.34;;;9.00;86.00
64908;BME280;69061;52.236;5.188;2023-04-22T03:36:22;100759.50;;;8.92;85.16
64908;BME280;69061;52.236;5.188;2023-04-22T03:38:48;100750.28;;;8.86;84.71
64908;BME280;69061;52.236;5.188;2023-04-22T03:41:17;100746.41;;;8.80;84.71
64908;BME280;69061;52.236;5.188;2023-04-22T03:43:43;100744.03;;;8.74;84.67
64908;BME280;69061;52.236;5.188;2023-04-22T03:46:10;100741.69;;;8.69;84.92
64908;BME280;69061;52.236;5.188;2023-04-22T03:48:36;100741.69;;;8.69;85.70
64908;BME280;69061;52.236;5.188;2023-04-22T03:51:03;100741.59;;;8.66;85.85
64908;BME280;69061;52.236;5.188;2023-04-22T03:53:29;100737.78;;;8.63;85.67
64908;BME280;69061;52.236;5.188;2023-04-22T03:55:56;100735.06;;;8.59;85.64
64908;BME280;69061;52.236;5.188;2023-04-22T03:58:24;100732.44;;;8.59;85.62
64908;BME280;69061;52.236;5.188;2023-04-22T04:00:50;100730.06;;;8.54;86.69
64908;BME280;69061;52.236;5.188;2023-04-22T04:03:17;100730.19;;;8.62;87.20
64908;BME280;69061;52.236;5.188;2023-04-22T04:05:43;100715.00;;;8.58;86.57
64908;BME280;69061;52.236;5.188;2023-04-22T04:08:10;100726.03;;;8.61;86.32
64908;BME280;69061;52.236;5.188;2023-04-22T04:10:36;100727.16;;;8.63;86.99
64908;BME280;69061;52.236;5.188;2023-04-22T04:13:03;100723.78;;;8.63;86.73
64908;BME280;69061;52.236;5.188;2023-04-22T04:15:31;100718.47;;;8.63;86.56
64908;BME280;69061;52.236;5.188;2023-04-22T04:17:59;100717.34;;;8.64;86.31
64908;BME280;69061;52.236;5.188;2023-04-22T04:20:27;100717.28;;;8.60;87.51
64908;BME280;69061;52.236;5.188;2023-04-22T04:22:53;100715.19;;;8.69;87.48
64908;BME280;69061;52.236;5.188;2023-04-22T04:25:20;100712.19;;;8.71;87.06
64908;BME280;69061;52.236;5.188;2023-04-22T04:27:47;100708.78;;;8.70;86.92
64908;BME280;69061;52.236;5.188;2023-04-22T04:30:14;100708.41;;;8.72;86.75
64908;BME280;69061;52.236;5.188;2023-04-22T04:32:42;100702.38;;;8.71;86.96
64908;BME280;69061;52.236;5.188;2023-04-22T04:35:09;100702.00;;;8.73;87.84
64908;BME280;69061;52.236;5.188;2023-04-22T04:37:37;100698.63;;;8.76;87.37
64908;BME280;69061;52.236;5.188;2023-04-22T04:40:05;100706.59;;;8.76;87.24
64908;BME280;69061;52.236;5.188;2023-04-22T04:42:32;100712.28;;;8.78;87.19
64908;BME280;69061;52.236;5.188;2023-04-22T04:44:59;100707.78;;;8.79;87.30
64908;BME280;69061;52.236;5.188;2023-04-22T04:47:25;100708.59;;;8.83;87.22
64908;BME280;69061;52.236;5.188;2023-04-22T04:49:53;100709.00;;;8.85;87.46
64908;BME280;69061;52.236;5.188;2023-04-22T04:52:22;100708.31;;;8.88;87.13
64908;BME280;69061;52.236;5.188;2023-04-22T04:54:49;100711.00;;;8.91;88.46
64908;BME280;69061;52.236;5.188;2023-04-22T04:57:15;100705.69;;;8.91;87.71
64908;BME280;69061;52.236;5.188;2023-04-22T04:59:42;100697.41;;;8.93;87.13
64908;BME280;69061;52.236;5.188;2023-04-22T05:02:08;100701.53;;;8.90;87.21
64908;BME280;69061;52.236;5.188;2023-04-22T05:04:35;100699.28;;;8.92;87.38
64908;BME280;69061;52.236;5.188;2023-04-22T05:07:03;100699.72;;;8.95;86.89
64908;BME280;69061;52.236;5.188;2023-04-22T05:09:29;100706.22;;;9.01;86.67
64908;BME280;69061;52.236;5.188;2023-04-22T05:12:01;100705.13;;;9.02;86.89
64908;BME280;69061;52.236;5.188;2023-04-22T05:14:27;100697.97;;;9.06;89.86
64908;BME280;69061;52.236;5.188;2023-04-22T05:16:54;100700.03;;;9.16;90.65
64908;BME280;69061;52.236;5.188;2023-04-22T05:19:20;100705.81;;;9.22;90.07
64908;BME280;69061;52.236;5.188;2023-04-22T05:21:47;100715.75;;;9.29;90.08
64908;BME280;69061;52.236;5.188;2023-04-22T05:24:15;100713.16;;;9.32;89.36
64908;BME280;69061;52.236;5.188;2023-04-22T05:26:41;100714.69;;;9.33;88.54
64908;BME280;69061;52.236;5.188;2023-04-22T05:29:08;100707.50;;;9.34;88.00
64908;BME280;69061;52.236;5.188;2023-04-22T05:31:35;100701.84;;;9.35;88.19
64908;BME280;69061;52.236;5.188;2023-04-22T05:34:01;100704.50;;;9.35;88.17
64908;BME280;69061;52.236;5.188;2023-04-22T05:36:28;100705.25;;;9.36;87.90
64908;BME280;69061;52.236;5.188;2023-04-22T05:38:56;100710.97;;;9.38;88.13
64908;BME280;69061;52.236;5.188;2023-04-22T05:41:24;100710.63;;;9.39;88.05
64908;BME280;69061;52.236;5.188;2023-04-22T05:43:51;100700.47;;;9.45;89.92
64908;BME280;69061;52.236;5.188;2023-04-22T05:46:17;100711.97;;;9.56;90.15
64908;BME280;69061;52.236;5.188;2023-04-22T05:48:44;100711.66;;;9.61;89.48
64908;BME280;69061;52.236;5.188;2023-04-22T05:51:10;100716.25;;;9.65;88.36
64908;BME280;69061;52.236;5.188;2023-04-22T05:53:37;100712.47;;;9.66;88.83
64908;BME280;69061;52.236;5.188;2023-04-22T05:56:03;100717.91;;;9.73;88.69
64908;BME280;69061;52.236;5.188;2023-04-22T05:58:31;100713.75;;;9.75;88.02
64908;BME280;69061;52.236;5.188;2023-04-22T06:01:01;100714.91;;;9.78;89.09
64908;BME280;69061;52.236;5.188;2023-04-22T06:03:28;100699.91;;;9.89;89.75
64908;BME280;69061;52.236;5.188;2023-04-22T06:05:56;100704.97;;;10.02;89.84
64908;BME280;69061;52.236;5.188;2023-04-22T06:08:22;100713.38;;;10.07;89.19
64908;BME280;69061;52.236;5.188;2023-04-22T06:10:49;100709.63;;;10.08;90.17
64908;BME280;69061;52.236;5.188;2023-04-22T06:13:15;100717.25;;;10.14;90.41
64908;BME280;69061;52.236;5.188;2023-04-22T06:15:43;100717.78;;;10.26;90.65
64908;BME280;69061;52.236;5.188;2023-04-22T06:18:10;100709.13;;;10.33;89.60
64908;BME280;69061;52.236;5.188;2023-04-22T06:20:36;100708.78;;;10.35;88.98
64908;BME280;69061;52.236;5.188;2023-04-22T06:23:03;100711.44;;;10.35;89.11
64908;BME280;69061;52.236;5.188;2023-04-22T06:25:30;100703.56;;;10.42;88.71
64908;BME280;69061;52.236;5.188;2023-04-22T06:27:57;100698.75;;;10.55;89.16
64908;BME280;69061;52.236;5.188;2023-04-22T06:30:24;100694.63;;;10.61;88.77
64908;BME280;69061;52.236;5.188;2023-04-22T06:32:52;100690.41;;;10.56;88.33
64908;BME280;69061;52.236;5.188;2023-04-22T06:35:19;100688.53;;;10.57;88.05
64908;BME280;69061;52.236;5.188;2023-04-22T06:37:46;100672.59;;;10.60;88.62
64908;BME280;69061;52.236;5.188;2023-04-22T06:40:13;100669.28;;;10.71;88.98
64908;BME280;69061;52.236;5.188;2023-04-22T06:42:40;100662.53;;;10.84;89.49
64908;BME280;69061;52.236;5.188;2023-04-22T06:45:07;100671.34;;;10.95;88.88
64908;BME280;69061;52.236;5.188;2023-04-22T06:47:37;100666.91;;;11.07;89.20
64908;BME280;69061;52.236;5.188;2023-04-22T06:50:06;100668.81;;;11.10;88.71
64908;BME280;69061;52.236;5.188;2023-04-22T06:52:32;100670.34;;;11.15;88.04
64908;BME280;69061;52.236;5.188;2023-04-22T06:54:59;100671.13;;;11.15;87.68
64908;BME280;69061;52.236;5.188;2023-04-22T06:57:27;100663.53;;;11.14;87.50
64908;BME280;69061;52.236;5.188;2023-04-22T06:59:54;100662.06;;;11.23;87.73
64908;BME280;69061;52.236;5.188;2023-04-22T07:02:20;100641.56;;;11.27;88.60
64908;BME280;69061;52.236;5.188;2023-04-22T07:04:47;100651.88;;;11.40;88.15
64908;BME280;69061;52.236;5.188;2023-04-22T07:07:15;100637.09;;;11.46;88.57
64908;BME280;69061;52.236;5.188;2023-04-22T07:09:41;100638.66;;;11.58;88.61
64908;BME280;69061;52.236;5.188;2023-04-22T07:12:08;100653.88;;;11.57;87.56
64908;BME280;69061;52.236;5.188;2023-04-22T07:14:35;100646.69;;;11.65;87.76
64908;BME280;69061;52.236;5.188;2023-04-22T07:17:02;100658.44;;;11.60;87.76
64908;BME280;69061;52.236;5.188;2023-04-22T07:19:28;100641.75;;;11.74;87.59
64908;BME280;69061;52.236;5.188;2023-04-22T07:21:55;100649.41;;;11.83;87.30
64908;BME280;69061;52.236;5.188;2023-04-22T07:24:23;100650.13;;;11.73;86.74
64908;BME280;69061;52.236;5.188;2023-04-22T07:26:50;100650.19;;;11.80;86.91
64908;BME280;69061;52.236;5.188;2023-04-22T07:29:16;100652.47;;;11.89;87.54
64908;BME280;69061;52.236;5.188;2023-04-22T07:31:43;100660.16;;;12.05;86.91
64908;BME280;69061;52.236;5.188;2023-04-22T07:34:10;100656.38;;;12.06;85.98
64908;BME280;69061;52.236;5.188;2023-04-22T07:36:36;100646.47;;;12.10;85.66
64908;BME280;69061;52.236;5.188;2023-04-22T07:39:03;100650.72;;;12.22;86.56
64908;BME280;69061;52.236;5.188;2023-04-22T07:41:31;100659.47;;;12.37;85.67
64908;BME280;69061;52.236;5.188;2023-04-22T07:43:58;100662.53;;;12.53;85.18
64908;BME280;69061;52.236;5.188;2023-04-22T07:46:24;100653.03;;;12.67;85.03
64908;BME280;69061;52.236;5.188;2023-04-22T07:48:51;100650.75;;;12.87;85.64
64908;BME280;69061;52.236;5.188;2023-04-22T07:51:17;100651.84;;;13.04;85.11
64908;BME280;69061;52.236;5.188;2023-04-22T07:53:44;100657.16;;;13.14;83.69
64908;BME280;69061;52.236;5.188;2023-04-22T07:56:11;100656.75;;;13.38;83.28
64908;BME280;69061;52.236;5.188;2023-04-22T07:58:39;100657.09;;;13.54;82.29
64908;BME280;69061;52.236;5.188;2023-04-22T08:01:06;100666.56;;;13.73;81.43
64908;BME280;69061;52.236;5.188;2023-04-22T08:03:32;100663.09;;;13.87;80.29
64908;BME280;69061;52.236;5.188;2023-04-22T08:05:59;100666.84;;;13.93;79.16
64908;BME280;69061;52.236;5.188;2023-04-22T08:08:25;100683.25;;;13.99;79.30
64908;BME280;69061;52.236;5.188;2023-04-22T08:10:52;100669.84;;;14.10;79.07
64908;BME280;69061;52.236;5.188;2023-04-22T08:13:18;100665.97;;;14.18;77.98
64908;BME280;69061;52.236;5.188;2023-04-22T08:15:46;100662.56;;;14.14;77.40
64908;BME280;69061;52.236;5.188;2023-04-22T08:18:13;100655.25;;;14.22;76.95
64908;BME280;69061;52.236;5.188;2023-04-22T08:20:39;100656.75;;;14.26;76.69
64908;BME280;69061;52.236;5.188;2023-04-22T08:23:06;100652.81;;;14.42;76.96
64908;BME280;69061;52.236;5.188;2023-04-22T08:25:33;100654.59;;;14.59;75.28
64908;BME280;69061;52.236;5.188;2023-04-22T08:28:00;100649.19;;;14.74;74.94
64908;BME280;69061;52.236;5.188;2023-04-22T08:30:26;100640.72;;;14.79;74.14
64908;BME280;69061;52.236;5.188;2023-04-22T08:32:54;100631.78;;;14.96;74.54
64908;BME280;69061;52.236;5.188;2023-04-22T08:35:21;100618.09;;;15.25;74.53
64908;BME280;69061;52.236;5.188;2023-04-22T08:37:47;100610.50;;;15.55;73.16
64908;BME280;69061;52.236;5.188;2023-04-22T08:40:14;100614.75;;;15.79;73.08
64908;BME280;69061;52.236;5.188;2023-04-22T08:42:42;100599.59;;;15.96;70.54
64908;BME280;69061;52.236;5.188;2023-04-22T08:45:09;100605.50;;;16.11;70.31
64908;BME280;69061;52.236;5.188;2023-04-22T08:47:36;100614.47;;;16.28;69.14
64908;BME280;69061;52.236;5.188;2023-04-22T08:50:06;100614.59;;;16.45;67.38
64908;BME280;69061;52.236;5.188;2023-04-22T08:52:33;100615.69;;;16.47;66.21
64908;BME280;69061;52.236;5.188;2023-04-22T08:55:00;100607.59;;;16.51;65.79
64908;BME280;69061;52.236;5.188;2023-04-22T08:57:27;100615.75;;;16.67;65.95
64908;BME280;69061;52.236;5.188;2023-04-22T08:59:55;100619.31;;;16.84;65.08
64908;BME280;69061;52.236;5.188;2023-04-22T09:02:23;100613.63;;;17.03;65.10
64908;BME280;69061;52.236;5.188;2023-04-22T09:04:51;100612.66;;;17.13;64.78
64908;BME280;69061;52.236;5.188;2023-04-22T09:07:22;100610.53;;;17.24;64.92
64908;BME280;69061;52.236;5.188;2023-04-22T09:09:49;100612.09;;;17.42;64.75
64908;BME280;69061;52.236;5.188;2023-04-22T09:12:15;100602.72;;;17.50;64.36
64908;BME280;69061;52.236;5.188;2023-04-22T09:14:43;100607.72;;;17.68;64.18
64908;BME280;69061;52.236;5.188;2023-04-22T09:17:10;100598.84;;;17.88;63.78
64908;BME280;69061;52.236;5.188;2023-04-22T09:19:40;100597.31;;;18.07;63.01
64908;BME280;69061;52.236;5.188;2023-04-22T09:22:09;100591.41;;;18.28;62.01
64908;BME280;69061;52.236;5.188;2023-04-22T09:24:42;100589.22;;;18.40;61.75
64908;BME280;69061;52.236;5.188;2023-04-22T09:27:09;100584.41;;;18.47;60.95
64908;BME280;69061;52.236;5.188;2023-04-22T09:29:36;100574.63;;;18.54;61.87
64908;BME280;69061;52.236;5.188;2023-04-22T09:32:08;100576.38;;;18.60;61.38
64908;BME280;69061;52.236;5.188;2023-04-22T09:34:44;100571.66;;;18.64;59.38
64908;BME280;69061;52.236;5.188;2023-04-22T09:37:11;100571.06;;;18.73;60.45
64908;BME280;69061;52.236;5.188;2023-04-22T09:39:42;100580.38;;;18.85;59.64
64908;BME280;69061;52.236;5.188;2023-04-22T09:42:08;100570.44;;;18.98;59.85
64908;BME280;69061;52.236;5.188;2023-04-22T09:44:37;100549.75;;;19.08;59.09
64908;BME280;69061;52.236;5.188;2023-04-22T09:47:04;100550.00;;;19.27;58.67
64908;BME280;69061;52.236;5.188;2023-04-22T09:49:35;100540.84;;;19.50;58.10
64908;BME280;69061;52.236;5.188;2023-04-22T09:52:02;100534.03;;;19.71;58.05
64908;BME280;69061;52.236;5.188;2023-04-22T09:54:28;100533.09;;;19.91;57.15
64908;BME280;69061;52.236;5.188;2023-04-22T09:56:56;100509.72;;;20.10;56.56
64908;BME280;69061;52.236;5.188;2023-04-22T09:59:24;100508.47;;;20.36;56.74
64908;BME280;69061;52.236;5.188;2023-04-22T10:01:54;100499.00;;;20.54;54.95
64908;BME280;69061;52.236;5.188;2023-04-22T10:04:21;100501.81;;;20.73;54.71
64908;BME280;69061;52.236;5.188;2023-04-22T10:06:50;100516.00;;;20.86;53.80
64908;BME280;69061;52.236;5.188;2023-04-22T10:09:18;100522.91;;;20.87;53.79
64908;BME280;69061;52.236;5.188;2023-04-22T10:11:45;100532.88;;;20.99;54.59
64908;BME280;69061;52.236;5.188;2023-04-22T10:14:13;100532.00;;;21.02;53.25
64908;BME280;69061;52.236;5.188;2023-04-22T10:16:42;100535.38;;;21.16;55.73
64908;BME280;69061;52.236;5.188;2023-04-22T10:19:11;100548.34;;;21.30;55.23
64908;BME280;69061;52.236;5.188;2023-04-22T10:21:40;100547.16;;;21.31;55.11
64908;BME280;69061;52.236;5.188;2023-04-22T10:24:14;100552.31;;;21.48;54.27
64908;BME280;69061;52.236;5.188;2023-04-22T10:26:42;100554.22;;;21.69;54.35
64908;BME280;69061;52.236;5.188;2023-04-22T10:29:12;100543.13;;;21.77;52.63
64908;BME280;69061;52.236;5.188;2023-04-22T10:31:42;100543.56;;;21.75;52.64
64908;BME280;69061;52.236;5.188;2023-04-22T10:34:11;100546.13;;;21.79;52.65
64908;BME280;69061;52.236;5.188;2023-04-22T10:36:58;100542.66;;;21.78;52.40
64908;BME280;69061;52.236;5.188;2023-04-22T10:39:27;100536.38;;;21.81;51.82
64908;BME280;69061;52.236;5.188;2023-04-22T10:42:03;100539.22;;;21.78;52.18
64908;BME280;69061;52.236;5.188;2023-04-22T10:44:44;100532.88;;;21.62;50.92
64908;BME280;69061;52.236;5.188;2023-04-22T10:47:23;100531.06;;;21.59;51.82
64908;BME280;69061;52.236;5.188;2023-04-22T10:49:50;100533.97;;;21.43;51.46
64908;BME280;69061;52.236;5.188;2023-04-22T10:52:26;100534.22;;;21.26;52.52
64908;BME280;69061;52.236;5.188;2023-04-22T10:54:57;100529.72;;;21.23;52.71
64908;BME280;69061;52.236;5.188;2023-04-22T10:57:46;100542.84;;;21.12;52.40
64908;BME280;69061;52.236;5.188;2023-04-22T11:00:38;100536.47;;;20.96;52.82
64908;BME280;69061;52.236;5.188;2023-04-22T11:03:09;100544.28;;;20.72;53.43
64908;BME280;69061;52.236;5.188;2023-04-22T11:05:36;100549.44;;;20.44;54.05
64908;BME280;69061;52.236;5.188;2023-04-22T11:08:05;100550.03;;;20.26;55.05
64908;BME280;69061;52.236;5.188;2023-04-22T11:10:37;100565.50;;;20.13;55.50
64908;BME280;69061;52.236;5.188;2023-04-22T11:13:08;100557.66;;;19.93;55.72
64908;BME280;69061;52.236;5.188;2023-04-22T11:15:36;100550.69;;;19.82;56.19
64908;BME280;69061;52.236;5.188;2023-04-22T11:18:08;100543.44;;;19.66;57.01
64908;BME280;69061;52.236;5.188;2023-04-22T11:20:36;100542.25;;;19.55;56.78
64908;BME280;69061;52.236;5.188;2023-04-22T11:23:04;100545.78;;;19.39;56.99
64908;BME280;69061;52.236;5.188;2023-04-22T11:25:30;100546.22;;;19.24;57.10
64908;BME280;69061;52.236;5.188;2023-04-22T11:27:57;100554.06;;;19.06;57.29
64908;BME280;69061;52.236;5.188;2023-04-22T11:30:26;100547.97;;;18.89;57.66
64908;BME280;69061;52.236;5.188;2023-04-22T11:32:54;100556.44;;;18.74;58.49
64908;BME280;69061;52.236;5.188;2023-04-22T11:35:25;100557.81;;;18.66;58.80
64908;BME280;69061;52.236;5.188;2023-04-22T11:37:53;100544.50;;;18.59;59.21
64908;BME280;69061;52.236;5.188;2023-04-22T11:40:21;100543.41;;;18.56;59.87
64908;BME280;69061;52.236;5.188;2023-04-22T11:42:49;100553.44;;;18.56;59.91
64908;BME280;69061;52.236;5.188;2023-04-22T11:45:17;100557.72;;;18.53;60.23
64908;BME280;69061;52.236;5.188;2023-04-22T11:47:43;100559.69;;;18.52;60.29
64908;BME280;69061;52.236;5.188;2023-04-22T11:50:11;100572.47;;;18.48;60.75
64908;BME280;69061;52.236;5.188;2023-04-22T11:52:52;100571.16;;;18.40;60.40
64908;BME280;69061;52.236;5.188;2023-04-22T11:55:20;100576.44;;;18.27;61.24
64908;BME280;69061;52.236;5.188;2023-04-22T11:57:53;100586.38;;;18.14;63.27
64908;BME280;69061;52.236;5.188;2023-04-22T12:00:21;100589.47;;;17.96;63.58
64908;BME280;69061;52.236;5.188;2023-04-22T12:02:55;100574.00;;;17.83;65.65
64908;BME280;69061;52.236;5.188;2023-04-22T12:05:35;100586.06;;;17.75;68.54
64908;BME280;69061;52.236;5.188;2023-04-22T12:08:06;100583.19;;;17.66;69.42
64908;BME280;69061;52.236;5.188;2023-04-22T12:10:33;100587.28;;;17.54;69.10
64908;BME280;69061;52.236;5.188;2023-04-22T12:13:00;100584.41;;;17.45;70.40
64908;BME280;69061;52.236;5.188;2023-04-22T12:15:36;100587.38;;;17.30;70.69
64908;BME280;69061;52.236;5.188;2023-04-22T12:18:03;100594.06;;;17.22;71.19
64908;BME280;69061;52.236;5.188;2023-04-22T12:20:32;100591.25;;;17.09;72.12
64908;BME280;69061;52.236;5.188;2023-04-22T12:22:58;100589.19;;;16.97;72.74
64908;BME280;69061;52.236;5.188;2023-04-22T12:25:26;100582.63;;;16.78;73.34
64908;BME280;69061;52.236;5.188;2023-04-22T12:27:53;100600.22;;;16.79;73.62
64908;BME280;69061;52.236;5.188;2023-04-22T12:30:20;100592.72;;;16.70;73.94
64908;BME280;69061;52.236;5.188;2023-04-22T12:32:48;100578.31;;;16.60;74.63
64908;BME280;69061;52.236;5.188;2023-04-22T12:35:14;100576.09;;;16.55;75.90
64908;BME280;69061;52.236;5.188;2023-04-22T12:37:41;100580.78;;;16.51;75.71
64908;BME280;69061;52.236;5.188;2023-04-22T12:40:08;100596.97;;;16.44;76.17
64908;BME280;69061;52.236;5.188;2023-04-22T12:42:37;100609.81;;;16.32;76.90
64908;BME280;69061;52.236;5.188;2023-04-22T12:45:04;100612.59;;;16.25;76.61
64908;BME280;69061;52.236;5.188;2023-04-22T12:47:31;100611.19;;;16.17;77.38
64908;BME280;69061;52.236;5.188;2023-04-22T12:49:57;100618.91;;;16.11;78.12
64908;BME280;69061;52.236;5.188;2023-04-22T12:52:25;100606.78;;;16.03;78.45
64908;BME280;69061;52.236;5.188;2023-04-22T12:54:52;100599.22;;;15.98;79.41